Time;durP1;ratioP1;P1;durP2;ratioP2;P2;SDS_P1;SDS_P2;PMS_P1;PMS_P2;Temp;Humidity;BMP_temperature;BMP_pressure;BME280_temperature;BME280_humidity;BME280_pressure;Samples;Min_cycle;Max_cycle;Signal;HPM_P1;HPM_P2
2022/01/01 00:00:54;;;;;;;1.70;1.40;;;;;;;3.80;89.59;98558.05;1733885;80;21029;-55
2022/01/01 00:03:20;;;;;;;1.77;0.90;;;;;;;3.83;89.57;98562.36;1722449;80;21627;-55
2022/01/01 00:05:47;;;;;;;1.80;0.83;;;;;;;3.85;89.59;98555.66;1727367;81;21286;-56
2022/01/01 00:08:15;;;;;;;1.63;0.90;;;;;;;3.88;89.63;98557.73;1729389;81;21087;-57
2022/01/01 00:10:42;;;;;;;2.23;0.97;;;;;;;3.94;89.71;98555.28;1727996;80;21420;-55
2022/01/01 00:13:08;;;;;;;1.57;0.90;;;;;;;3.99;89.91;98548.86;1729018;81;21627;-57
2022/01/01 00:15:34;;;;;;;1.00;0.63;;;;;;;4.07;90.03;98544.55;1730428;80;21424;-56
2022/01/01 00:18:01;;;;;;;2.10;0.80;;;;;;;4.11;90.02;98547.02;1713650;81;21093;-55
2022/01/01 00:20:28;;;;;;;2.47;0.60;;;;;;;4.15;90.06;98538.44;1707181;82;21097;-56
2022/01/01 00:22:56;;;;;;;3.63;1.43;;;;;;;4.16;89.96;98538.38;1708848;82;21405;-57
2022/01/01 00:25:22;;;;;;;1.10;0.77;;;;;;;4.17;89.92;98533.89;1707035;83;21448;-57
2022/01/01 00:27:49;;;;;;;0.70;0.50;;;;;;;4.19;89.94;98538.70;1705533;82;21078;-55
2022/01/01 00:30:15;;;;;;;0.90;0.50;;;;;;;4.21;89.99;98531.52;1703306;83;22319;-55
2022/01/01 00:32:41;;;;;;;0.80;0.50;;;;;;;4.21;90.07;98523.53;1704652;82;21080;-56
2022/01/01 00:35:08;;;;;;;0.60;0.40;;;;;;;4.24;90.19;98526.08;1709497;82;21077;-57
2022/01/01 00:37:36;;;;;;;0.83;0.50;;;;;;;4.29;90.33;98520.53;1704864;82;21399;-56
2022/01/01 00:40:04;;;;;;;0.40;0.40;;;;;;;4.32;90.37;98523.08;1708673;82;21524;-55
2022/01/01 00:42:32;;;;;;;0.47;0.37;;;;;;;4.35;90.47;98523.80;1703448;82;21089;-57
2022/01/01 00:44:58;;;;;;;0.50;0.40;;;;;;;4.37;90.50;98516.62;1709896;82;21134;-57
2022/01/01 00:47:25;;;;;;;0.87;0.40;;;;;;;4.41;90.52;98516.03;1707675;82;21073;-56
2022/01/01 00:49:51;;;;;;;0.60;0.40;;;;;;;4.42;90.58;98507.11;1710225;82;21097;-56
2022/01/01 00:52:18;;;;;;;0.60;0.40;;;;;;;4.44;90.58;98511.88;1686888;82;21092;-55
2022/01/01 00:54:44;;;;;;;0.50;0.50;;;;;;;4.45;90.69;98503.83;1708412;82;21457;-56
2022/01/01 00:57:10;;;;;;;0.77;0.50;;;;;;;4.48;90.76;98508.17;1704428;82;21328;-58
2022/01/01 00:59:37;;;;;;;0.50;0.50;;;;;;;4.50;90.81;98503.65;1706738;82;21050;-58
2022/01/01 01:02:03;;;;;;;0.50;0.40;;;;;;;4.53;90.87;98499.03;1703365;82;21619;-56
2022/01/01 01:04:29;;;;;;;0.80;0.57;;;;;;;4.55;90.87;98488.31;1706643;82;21418;-56
2022/01/01 01:06:55;;;;;;;0.60;0.43;;;;;;;4.57;90.87;98490.45;1706292;82;21721;-59
2022/01/01 01:09:22;;;;;;;0.57;0.50;;;;;;;4.59;90.93;98486.39;1709248;82;21080;-56
2022/01/01 01:11:51;;;;;;;0.50;0.40;;;;;;;4.61;90.97;98493.36;1669285;83;21054;-56
2022/01/01 01:14:21;;;;;;;0.60;0.50;;;;;;;4.61;91.05;98490.70;1672651;84;21141;-56
2022/01/01 01:16:48;;;;;;;0.50;0.40;;;;;;;4.63;91.19;98486.63;1647014;84;21655;-58
2022/01/01 01:19:15;;;;;;;0.73;0.60;;;;;;;4.67;91.31;98481.12;1733509;80;21046;-57
2022/01/01 01:21:43;;;;;;;0.90;0.60;;;;;;;4.71;91.38;98481.36;1728400;80;21580;-59
2022/01/01 01:24:12;;;;;;;0.93;0.50;;;;;;;4.73;91.38;98466.64;1727823;81;21061;-57
2022/01/01 01:26:39;;;;;;;0.50;0.40;;;;;;;4.78;91.41;98465.95;1727287;81;21058;-57
2022/01/01 01:29:05;;;;;;;0.90;0.40;;;;;;;4.80;91.46;98468.09;1729649;81;21105;-58
2022/01/01 01:31:33;;;;;;;0.67;0.50;;;;;;;4.84;91.53;98468.36;1725848;80;21426;-60
2022/01/01 01:34:01;;;;;;;0.53;0.43;;;;;;;4.85;91.62;98468.27;1727772;81;21060;-59
2022/01/01 01:36:28;;;;;;;1.00;0.40;;;;;;;4.88;91.65;98459.27;1729138;81;21031;-58
2022/01/01 01:38:54;;;;;;;0.57;0.40;;;;;;;4.91;91.75;98464.47;1730435;81;21058;-59
2022/01/01 01:41:23;;;;;;;0.47;0.40;;;;;;;4.94;91.82;98453.64;1731481;81;21086;-58
2022/01/01 01:43:52;;;;;;;0.60;0.50;;;;;;;4.97;91.83;98457.52;1729656;81;21081;-56
2022/01/01 01:46:18;;;;;;;0.53;0.40;;;;;;;4.98;91.84;98451.25;1730217;81;21126;-58
2022/01/01 01:48:46;;;;;;;1.83;0.60;;;;;;;5.00;91.86;98444.05;1729840;80;21556;-58
2022/01/01 01:51:12;;;;;;;0.70;0.60;;;;;;;5.02;91.86;98447.48;1728478;81;21180;-59
2022/01/01 01:53:39;;;;;;;0.90;0.60;;;;;;;5.04;91.89;98436.29;1731447;81;21152;-58
2022/01/01 01:56:06;;;;;;;0.63;0.60;;;;;;;5.06;91.96;98437.09;1729179;81;21058;-58
2022/01/01 01:58:33;;;;;;;0.93;0.70;;;;;;;5.09;92.06;98436.95;1733697;81;21166;-58
2022/01/01 02:03:26;;;;;;;1.40;1.07;;;;;;;5.14;92.15;98428.72;1730448;81;20927;-58
2022/01/01 02:05:52;;;;;;;1.07;0.80;;;;;;;5.15;92.17;98433.99;1733365;81;20953;-57
2022/01/01 02:08:21;;;;;;;1.40;0.80;;;;;;;5.18;92.23;98425.86;1734409;80;20919;-58
2022/01/01 02:10:51;;;;;;;1.30;1.10;;;;;;;5.20;92.27;98422.63;1737371;81;21088;-57
2022/01/01 02:13:22;;;;;;;1.53;1.10;;;;;;;5.23;92.32;98428.29;1697082;83;21318;-56
2022/01/01 02:18:19;;;;;;;1.82;1.05;;;;;;;5.28;92.53;98415.11;1730933;80;21057;-58
2022/01/01 02:20:49;;;;;;;1.57;1.13;;;;;;;5.32;92.54;98423.85;1732010;81;21117;-58
2022/01/01 02:23:14;;;;;;;1.40;1.30;;;;;;;5.34;92.60;98413.98;1727704;81;21149;-59
2022/01/01 02:25:41;;;;;;;1.85;1.30;;;;;;;5.38;92.62;98414.67;1729773;81;21098;-58
2022/01/01 02:28:07;;;;;;;1.37;1.20;;;;;;;5.41;92.70;98418.08;1729178;80;21101;-59
2022/01/01 02:32:27;;;;;;;1.80;1.70;;;;;;;5.51;92.72;98407.81;1778318;78;23205;-62
2022/01/01 02:34:53;;;;;;;3.50;1.20;;;;;;;5.49;92.79;98414.56;1740342;80;21034;-63
2022/01/01 02:37:19;;;;;;;1.40;1.27;;;;;;;5.51;92.82;98410.02;1706268;81;21164;-65
2022/01/01 02:39:46;;;;;;;1.50;1.22;;;;;;;5.54;92.86;98407.17;1707129;81;21440;-62
2022/01/01 02:42:18;;;;;;;2.03;1.80;;;;;;;5.58;92.97;98410.58;1704790;81;21345;-63
2022/01/01 02:44:43;;;;;;;3.00;2.58;;;;;;;5.63;93.09;98412.06;1705214;81;20989;-64
2022/01/01 02:47:09;;;;;;;3.47;2.80;;;;;;;5.68;93.12;98407.84;1708844;81;20993;-68
2022/01/01 02:49:35;;;;;;;3.37;3.03;;;;;;;5.70;93.15;98405.47;1705463;81;21089;-63
2022/01/01 02:52:01;;;;;;;2.73;2.53;;;;;;;5.75;93.23;98404.39;1707181;81;21123;-62
2022/01/01 02:54:28;;;;;;;3.50;3.20;;;;;;;5.78;93.23;98402.45;1705863;81;21100;-64
2022/01/01 02:56:56;;;;;;;4.00;3.57;;;;;;;5.82;93.33;98404.47;1691346;83;21413;-61
2022/01/01 02:59:24;;;;;;;2.87;2.67;;;;;;;5.86;93.38;98406.94;1692113;83;21496;-67
2022/01/01 03:01:50;;;;;;;4.40;3.67;;;;;;;5.90;93.41;98403.18;1699028;82;21569;-61
2022/01/01 03:04:17;;;;;;;4.60;4.20;;;;;;;5.95;93.48;98397.16;1699079;82;21050;-62
2022/01/01 03:06:45;;;;;;;4.53;4.20;;;;;;;6.00;93.54;98404.45;1701129;82;21116;-62
2022/01/01 03:09:11;;;;;;;5.33;4.87;;;;;;;6.05;93.59;98402.86;1699640;82;21081;-61
2022/01/01 03:11:37;;;;;;;5.20;4.50;;;;;;;6.08;93.60;98394.23;1699719;82;21073;-67
2022/01/01 03:14:05;;;;;;;5.37;4.80;;;;;;;6.13;93.59;98402.46;1700451;82;21122;-64
2022/01/01 03:16:32;;;;;;;4.43;4.03;;;;;;;6.15;93.63;98391.23;1702408;82;21133;-65
2022/01/01 03:18:58;;;;;;;5.20;3.87;;;;;;;6.18;93.68;98387.08;1698947;82;21548;-66
2022/01/01 03:21:25;;;;;;;3.93;3.63;;;;;;;6.21;93.67;98394.44;1704949;82;21080;-65
2022/01/01 03:23:52;;;;;;;4.23;3.80;;;;;;;6.24;93.66;98392.96;1688631;82;21081;-65
2022/01/01 03:26:18;;;;;;;3.85;3.55;;;;;;;6.28;93.62;98399.02;1682798;84;21813;-62
2022/01/01 03:28:46;;;;;;;4.40;4.00;;;;;;;6.30;93.61;98395.77;1682961;83;21073;-66
2022/01/01 03:31:13;;;;;;;4.12;3.83;;;;;;;6.30;93.62;98391.77;1679410;83;21354;-63
2022/01/01 03:33:41;;;;;;;5.15;4.08;;;;;;;6.32;93.67;98384.53;1673061;84;21145;-63
2022/01/01 03:36:07;;;;;;;5.40;4.50;;;;;;;6.34;93.63;98397.36;1670390;84;21109;-65
2022/01/01 03:38:34;;;;;;;5.80;4.97;;;;;;;6.33;93.65;98404.97;1671933;84;21236;-65
2022/01/01 03:41:01;;;;;;;4.80;4.40;;;;;;;6.38;93.74;98398.94;1672757;84;21085;-63
2022/01/01 03:43:27;;;;;;;4.87;4.47;;;;;;;6.39;93.73;98401.50;1670177;84;21397;-65
2022/01/01 03:45:53;;;;;;;4.85;4.45;;;;;;;6.41;93.73;98409.45;1668509;84;21355;-64
2022/01/01 03:48:20;;;;;;;6.45;5.85;;;;;;;6.43;93.74;98403.55;1671448;84;21308;-66
2022/01/01 03:50:46;;;;;;;5.97;5.13;;;;;;;6.46;93.79;98403.41;1668931;84;21544;-64
2022/01/01 03:53:13;;;;;;;7.62;5.87;;;;;;;6.48;93.80;98402.83;1671937;84;21692;-66
2022/01/01 03:55:40;;;;;;;5.60;5.20;;;;;;;6.49;93.80;98400.55;1671759;83;21092;-66
2022/01/01 03:58:08;;;;;;;5.17;4.78;;;;;;;6.51;93.81;98401.80;1670810;84;21133;-65
2022/01/01 04:00:39;;;;;;;7.33;5.20;;;;;;;6.53;93.83;98402.59;1648273;84;21113;-64
2022/01/01 04:03:07;;;;;;;6.05;5.35;;;;;;;6.55;93.79;98406.89;1673196;84;21777;-67
2022/01/01 04:05:35;;;;;;;5.50;4.92;;;;;;;6.57;93.79;98406.81;1674604;84;20954;-65
2022/01/01 04:08:03;;;;;;;5.67;5.28;;;;;;;6.57;93.77;98410.36;1669100;84;21091;-65
2022/01/01 04:10:31;;;;;;;6.83;4.87;;;;;;;6.59;93.70;98410.28;1650428;84;21084;-63
2022/01/01 04:13:00;;;;;;;6.70;5.90;;;;;;;6.58;93.75;98414.77;1672763;84;21149;-64
2022/01/01 04:15:27;;;;;;;5.47;4.95;;;;;;;6.60;93.80;98420.90;1670216;83;21134;-66
2022/01/01 04:18:00;;;;;;;6.50;4.80;;;;;;;6.62;93.79;98423.03;1670959;84;21066;-65
2022/01/01 04:20:25;;;;;;;5.62;4.97;;;;;;;6.64;93.81;98425.59;1670073;84;21101;-65
2022/01/01 04:22:52;;;;;;;4.97;4.57;;;;;;;6.64;93.79;98427.80;1675818;84;21006;-65
2022/01/01 04:25:20;;;;;;;6.22;5.22;;;;;;;6.66;93.76;98430.39;1672759;84;20958;-66
2022/01/01 04:27:51;;;;;;;4.58;4.17;;;;;;;6.66;93.69;98428.58;1673732;84;22738;-67
2022/01/01 04:30:17;;;;;;;5.20;4.72;;;;;;;6.66;93.78;98428.58;1669112;84;21614;-66
2022/01/01 04:32:44;;;;;;;4.20;3.80;;;;;;;6.68;93.77;98432.05;1667686;84;21145;-66
2022/01/01 04:35:11;;;;;;;4.35;4.08;;;;;;;6.71;93.77;98438.58;1671158;84;21180;-65
2022/01/01 04:37:38;;;;;;;4.65;4.33;;;;;;;6.73;93.75;98442.02;1671430;84;21694;-64
2022/01/01 04:40:07;;;;;;;4.22;3.92;;;;;;;6.75;93.72;98438.79;1667514;84;21129;-66
2022/01/01 04:42:34;;;;;;;3.55;3.33;;;;;;;6.77;93.71;98437.38;1651722;84;21105;-64
2022/01/01 04:45:01;;;;;;;3.15;2.90;;;;;;;6.78;93.72;98434.62;1668831;84;21074;-66
2022/01/01 04:47:28;;;;;;;3.40;3.20;;;;;;;6.78;93.65;98435.97;1668161;84;21074;-66
2022/01/01 04:49:55;;;;;;;3.08;2.75;;;;;;;6.80;93.67;98442.58;1670978;84;21172;-64
2022/01/01 04:52:22;;;;;;;3.22;2.92;;;;;;;6.81;93.65;98438.92;1670102;84;21152;-62
2022/01/01 04:54:48;;;;;;;3.27;2.87;;;;;;;6.84;93.65;98434.76;1668526;84;21124;-64
2022/01/01 04:57:14;;;;;;;2.77;2.58;;;;;;;6.86;93.67;98436.02;1668090;84;21085;-66
2022/01/01 04:59:41;;;;;;;2.55;2.35;;;;;;;6.86;93.58;98434.69;1683302;84;21101;-63
2022/01/01 05:02:07;;;;;;;2.83;2.62;;;;;;;6.88;93.55;98448.38;1670887;83;21136;-64
2022/01/01 05:04:36;;;;;;;2.30;2.10;;;;;;;6.89;93.45;98448.73;1669755;84;21129;-63
2022/01/01 05:07:04;;;;;;;2.87;1.95;;;;;;;6.90;93.44;98451.80;1665557;84;21094;-64
2022/01/01 05:09:30;;;;;;;2.55;2.02;;;;;;;6.92;93.48;98455.27;1655198;84;20951;-64
2022/01/01 05:11:56;;;;;;;2.83;2.62;;;;;;;6.95;93.46;98454.25;1668517;84;21502;-63
2022/01/01 05:14:23;;;;;;;2.25;1.60;;;;;;;6.96;93.42;98451.97;1670210;84;21493;-65
2022/01/01 05:16:52;;;;;;;2.65;2.00;;;;;;;7.00;93.42;98462.88;1670009;84;21113;-64
2022/01/01 05:19:19;;;;;;;2.37;2.17;;;;;;;7.00;93.28;98475.78;1668968;84;21133;-63
2022/01/01 05:21:46;;;;;;;2.12;1.62;;;;;;;7.01;93.26;98473.50;1668144;84;21102;-66
2022/01/01 05:24:18;;;;;;;2.62;1.45;;;;;;;7.02;93.28;98473.03;1667555;84;21088;-64
2022/01/01 05:26:41;;;;;;;1.90;1.70;;;;;;;7.06;93.27;98481.30;1668124;84;21129;-65
2022/01/01 05:29:08;;;;;;;1.80;1.17;;;;;;;7.09;93.21;98478.44;1672069;84;21140;-66
2022/01/01 05:31:34;;;;;;;1.30;1.07;;;;;;;7.10;93.12;98488.20;1685441;83;21073;-66
2022/01/01 05:34:01;;;;;;;3.00;1.37;;;;;;;7.09;93.02;98488.66;1671216;84;21089;-63
2022/01/01 05:36:27;;;;;;;1.87;0.95;;;;;;;7.11;93.03;98495.28;1668658;84;21082;-66
2022/01/01 05:38:54;;;;;;;1.72;1.20;;;;;;;7.11;92.97;98489.92;1672243;84;20942;-63
2022/01/01 05:41:20;;;;;;;1.00;0.90;;;;;;;7.12;92.87;98495.67;1673484;84;21003;-62
2022/01/01 05:43:49;;;;;;;1.10;0.90;;;;;;;7.12;92.86;98502.36;1674412;84;21088;-64
2022/01/01 05:46:16;;;;;;;1.05;0.88;;;;;;;7.13;92.75;98498.75;1673657;84;20950;-68
2022/01/01 05:48:42;;;;;;;1.50;0.90;;;;;;;7.12;92.75;98505.91;1671111;84;21402;-66
2022/01/01 05:51:09;;;;;;;1.10;0.70;;;;;;;7.13;92.69;98502.76;1675724;84;20982;-63
2022/01/01 05:53:36;;;;;;;1.42;1.02;;;;;;;7.15;92.66;98506.19;1673877;84;21788;-64
2022/01/01 05:56:03;;;;;;;1.30;1.02;;;;;;;7.14;92.55;98512.52;1670133;84;21360;-68
2022/01/01 05:58:31;;;;;;;1.50;1.40;;;;;;;7.15;92.56;98512.41;1670434;84;21686;-65
2022/01/01 06:00:58;;;;;;;1.50;0.93;;;;;;;7.17;92.45;98519.89;1668873;84;21491;-67
2022/01/01 06:03:24;;;;;;;2.00;1.00;;;;;;;7.17;92.32;98523.03;1669248;84;21665;-65
2022/01/01 06:05:52;;;;;;;1.30;1.00;;;;;;;7.18;92.18;98535.47;1671544;84;21566;-62
2022/01/01 06:08:19;;;;;;;0.90;0.72;;;;;;;7.15;92.03;98535.63;1671644;84;21401;-64
2022/01/01 06:10:46;;;;;;;0.95;0.78;;;;;;;7.15;92.00;98546.33;1668400;84;21058;-65
2022/01/01 06:13:13;;;;;;;0.60;0.57;;;;;;;7.15;91.85;98561.05;1670195;84;21475;-65
2022/01/01 06:15:42;;;;;;;1.10;0.78;;;;;;;7.14;91.72;98552.19;1668551;84;21646;-63
2022/01/01 06:18:09;;;;;;;0.80;0.70;;;;;;;7.12;91.51;98563.91;1669151;84;21201;-65
2022/01/01 06:20:36;;;;;;;0.78;0.70;;;;;;;7.11;91.51;98567.05;1669140;84;21121;-65
2022/01/01 06:23:05;;;;;;;0.90;0.60;;;;;;;7.11;91.37;98576.89;1671578;84;21066;-63
2022/01/01 06:25:31;;;;;;;0.60;0.60;;;;;;;7.10;91.21;98577.83;1669062;83;21354;-67
2022/01/01 06:27:58;;;;;;;0.60;0.50;;;;;;;7.08;91.23;98585.94;1668278;84;21558;-65
2022/01/01 06:30:24;;;;;;;0.70;0.50;;;;;;;7.06;91.03;98586.98;1668701;84;21104;-65
2022/01/01 06:32:52;;;;;;;0.57;0.47;;;;;;;7.02;90.90;98590.75;1680289;83;21099;-65
2022/01/01 06:35:18;;;;;;;0.40;0.40;;;;;;;7.00;90.84;98593.97;1680035;83;21061;-66
2022/01/01 06:37:45;;;;;;;0.60;0.40;;;;;;;6.98;90.76;98604.75;1676215;83;21072;-66
2022/01/01 06:40:13;;;;;;;0.40;0.40;;;;;;;6.97;90.60;98620.91;1693160;83;21064;-66
2022/01/01 06:42:39;;;;;;;0.65;0.40;;;;;;;6.93;90.53;98623.33;1669688;83;21179;-66
2022/01/01 06:45:06;;;;;;;0.40;0.40;;;;;;;6.90;90.51;98626.15;1697528;83;21725;-63
2022/01/01 06:47:34;;;;;;;0.60;0.33;;;;;;;6.90;90.49;98628.83;1681094;84;21092;-64
2022/01/01 06:50:00;;;;;;;0.37;0.30;;;;;;;6.89;90.44;98644.01;1696308;83;21096;-65
2022/01/01 06:52:27;;;;;;;0.40;0.30;;;;;;;6.89;90.46;98645.34;1670817;83;21120;-65
2022/01/01 06:54:53;;;;;;;0.40;0.30;;;;;;;6.89;90.39;98649.36;1667250;84;21763;-66
2022/01/01 06:57:19;;;;;;;0.40;0.30;;;;;;;6.89;90.39;98653.37;1696308;83;21505;-68
2022/01/01 06:59:46;;;;;;;0.42;0.30;;;;;;;6.90;90.32;98663.60;1695085;83;21163;-65
2022/01/01 07:02:12;;;;;;;0.40;0.33;;;;;;;6.89;90.21;98659.22;1685116;83;21804;-66
2022/01/01 07:04:39;;;;;;;0.30;0.28;;;;;;;6.89;90.16;98662.73;1666430;84;21056;-66
2022/01/01 07:07:05;;;;;;;0.53;0.30;;;;;;;6.91;90.09;98674.23;1662897;85;21198;-64
2022/01/01 07:09:31;;;;;;;0.75;0.30;;;;;;;6.94;89.94;98685.26;1679181;84;21181;-64
2022/01/01 07:11:59;;;;;;;0.30;0.30;;;;;;;6.92;89.68;98685.80;1674550;84;21065;-63
2022/01/01 07:14:26;;;;;;;0.30;0.30;;;;;;;6.88;89.62;98687.78;1681417;84;21611;-64
2022/01/01 07:16:52;;;;;;;0.57;0.30;;;;;;;6.84;89.51;98685.72;1678993;84;21697;-68
2022/01/01 07:19:19;;;;;;;0.23;0.20;;;;;;;6.80;89.42;98691.31;1675636;84;21138;-66
2022/01/01 07:21:46;;;;;;;0.30;0.20;;;;;;;6.75;89.41;98690.66;1695322;83;21076;-65
2022/01/01 07:24:12;;;;;;;0.20;0.20;;;;;;;6.71;89.46;98689.09;1682692;83;21307;-66
2022/01/01 07:26:38;;;;;;;0.30;0.20;;;;;;;6.71;89.52;98705.13;1699035;83;21493;-65
2022/01/01 07:29:05;;;;;;;0.20;0.20;;;;;;;6.69;89.46;98697.18;1668868;84;21676;-62
2022/01/01 07:31:31;;;;;;;0.10;0.10;;;;;;;6.71;89.40;98701.12;1679486;83;21160;-63
2022/01/01 07:33:57;;;;;;;0.35;0.20;;;;;;;6.70;89.45;98712.76;1677502;84;21080;-63
2022/01/01 07:36:24;;;;;;;0.20;0.20;;;;;;;6.70;89.39;98715.43;1678661;84;21084;-64
2022/01/01 07:38:50;;;;;;;0.30;0.20;;;;;;;6.70;89.41;98722.12;1677668;84;21116;-64
2022/01/01 07:41:16;;;;;;;0.37;0.20;;;;;;;6.71;89.44;98718.04;1698088;83;21094;-62
2022/01/01 07:43:43;;;;;;;0.20;0.10;;;;;;;6.72;89.46;98714.39;1696414;83;22140;-65
2022/01/01 07:46:09;;;;;;;0.42;0.20;;;;;;;6.72;89.53;98721.08;1674168;83;21540;-64
2022/01/01 07:48:37;;;;;;;0.20;0.20;;;;;;;6.74;89.56;98719.20;1679473;83;21467;-63
2022/01/01 07:51:03;;;;;;;0.20;0.20;;;;;;;6.74;89.51;98719.20;1672373;84;21014;-66
2022/01/01 07:53:31;;;;;;;0.20;0.20;;;;;;;6.76;89.49;98717.33;1699694;83;21135;-63
2022/01/01 07:55:58;;;;;;;0.20;0.17;;;;;;;6.77;89.37;98717.73;1696655;82;21462;-64
2022/01/01 07:58:24;;;;;;;0.30;0.20;;;;;;;6.74;89.32;98711.65;1694992;83;21132;-65
2022/01/01 08:00:51;;;;;;;0.20;0.10;;;;;;;6.69;89.38;98709.22;1677815;84;21113;-67
2022/01/01 08:03:17;;;;;;;0.35;0.20;;;;;;;6.68;89.51;98714.16;1674187;84;21111;-66
2022/01/01 08:05:44;;;;;;;0.30;0.13;;;;;;;6.69;89.60;98721.25;1676274;83;21740;-62
2022/01/01 08:08:10;;;;;;;0.37;0.10;;;;;;;6.70;89.49;98725.66;1676329;84;21107;-64
2022/01/01 08:10:39;;;;;;;0.68;0.20;;;;;;;6.67;89.56;98723.13;1671412;83;21128;-66
2022/01/01 08:13:08;;;;;;;0.30;0.20;;;;;;;6.70;89.56;98734.16;1697778;83;21100;-65
2022/01/01 08:15:35;;;;;;;0.20;0.10;;;;;;;6.71;89.57;98740.77;1678762;83;21140;-66
2022/01/01 08:18:02;;;;;;;0.47;0.20;;;;;;;6.72;89.52;98737.63;1676686;84;21613;-65
2022/01/01 08:20:29;;;;;;;0.20;0.15;;;;;;;6.71;89.49;98743.44;1689381;83;21283;-66
2022/01/01 08:22:55;;;;;;;1.22;0.20;;;;;;;6.72;89.48;98738.97;1687754;83;21512;-65
2022/01/01 08:25:21;;;;;;;0.53;0.28;;;;;;;6.74;89.53;98741.06;1688551;83;21544;-66
2022/01/01 08:27:48;;;;;;;0.50;0.30;;;;;;;6.76;89.50;98733.84;1687026;83;21129;-67
2022/01/01 08:30:16;;;;;;;0.30;0.20;;;;;;;6.75;89.34;98732.11;1694300;83;20971;-64
2022/01/01 08:32:44;;;;;;;0.50;0.28;;;;;;;6.76;89.41;98741.87;1690149;83;21076;-64
2022/01/01 08:35:10;;;;;;;0.88;0.20;;;;;;;6.77;89.36;98744.47;1674904;84;20995;-65
2022/01/01 08:37:36;;;;;;;0.37;0.30;;;;;;;6.78;89.30;98743.53;1678741;84;20959;-63
2022/01/01 08:40:04;;;;;;;0.30;0.20;;;;;;;6.78;89.21;98738.66;1678431;84;21054;-63
2022/01/01 08:42:30;;;;;;;0.25;0.20;;;;;;;6.78;89.12;98741.33;1681936;84;20963;-65
2022/01/01 08:44:57;;;;;;;0.20;0.20;;;;;;;6.78;89.05;98762.26;1680813;84;21015;-66
2022/01/01 08:47:26;;;;;;;0.35;0.20;;;;;;;6.77;88.94;98756.98;1676622;84;21567;-65
2022/01/01 08:49:55;;;;;;;0.10;0.10;;;;;;;6.76;88.96;98757.45;1680035;84;21057;-66
2022/01/01 08:52:25;;;;;;;0.60;0.10;;;;;;;6.78;88.85;98753.36;1675767;84;21102;-66
2022/01/01 08:54:55;;;;;;;0.30;0.20;;;;;;;6.77;88.77;98755.64;1667667;84;21494;-65
2022/01/01 08:57:21;;;;;;;0.10;0.10;;;;;;;6.75;88.61;98750.36;1673466;84;21483;-66
2022/01/01 08:59:47;;;;;;;0.30;0.20;;;;;;;6.73;88.55;98758.05;1663081;83;21141;-63
2022/01/01 09:02:14;;;;;;;0.85;0.10;;;;;;;6.73;88.52;98759.39;1675050;84;21090;-65
2022/01/01 09:04:40;;;;;;;0.25;0.17;;;;;;;6.73;88.48;98767.41;1676202;84;21496;-68
2022/01/01 09:07:07;;;;;;;0.35;0.20;;;;;;;6.72;88.53;98765.20;1674162;84;21523;-64
2022/01/01 09:09:33;;;;;;;0.95;0.10;;;;;;;6.75;88.51;98764.20;1673800;84;22596;-64
2022/01/01 09:11:59;;;;;;;0.85;0.17;;;;;;;6.75;88.55;98769.08;1674327;84;21680;-65
2022/01/01 09:14:25;;;;;;;0.17;0.10;;;;;;;6.75;88.42;98765.06;1676292;84;21181;-64
2022/01/01 09:16:52;;;;;;;0.20;0.20;;;;;;;6.76;88.23;98778.84;1656393;85;21101;-65
2022/01/01 09:19:19;;;;;;;0.20;0.10;;;;;;;6.73;88.15;98777.64;1708392;82;21058;-64
2022/01/01 09:21:47;;;;;;;0.10;0.10;;;;;;;6.72;88.04;98780.42;1709304;82;21066;-65
2022/01/01 09:24:15;;;;;;;0.20;0.10;;;;;;;6.71;88.08;98778.21;1707403;82;21086;-68
2022/01/01 09:26:42;;;;;;;0.10;0.10;;;;;;;6.74;87.98;98780.72;1706489;82;21542;-66
2022/01/01 09:29:11;;;;;;;0.10;0.10;;;;;;;6.73;87.96;98780.78;1709064;82;21030;-67
2022/01/01 09:31:41;;;;;;;0.47;0.10;;;;;;;6.75;87.92;98781.12;1707477;82;21058;-65
2022/01/01 09:34:09;;;;;;;0.30;0.10;;;;;;;6.78;87.92;98782.78;1715398;81;20986;-65
2022/01/01 09:36:36;;;;;;;0.20;0.15;;;;;;;6.78;87.88;98782.32;1711964;82;21515;-65
2022/01/01 09:39:04;;;;;;;0.37;0.20;;;;;;;6.80;87.87;98783.09;1703861;82;21500;-64
2022/01/01 09:41:30;;;;;;;0.40;0.20;;;;;;;6.77;87.79;98781.91;1713011;82;20895;-65
2022/01/01 09:43:57;;;;;;;0.25;0.20;;;;;;;6.76;87.81;98781.98;1707430;82;21123;-65
2022/01/01 09:46:26;;;;;;;0.30;0.30;;;;;;;6.75;87.85;98786.94;1716606;82;21458;-63
2022/01/01 09:48:52;;;;;;;0.25;0.20;;;;;;;6.73;87.80;98778.98;1707536;82;21032;-67
2022/01/01 09:51:20;;;;;;;0.30;0.20;;;;;;;6.70;87.81;98772.93;1711796;82;21105;-66
2022/01/01 09:53:47;;;;;;;0.45;0.25;;;;;;;6.69;87.87;98785.90;1708907;82;21093;-65
2022/01/01 09:56:14;;;;;;;0.50;0.30;;;;;;;6.71;87.90;98781.35;1698403;82;21601;-65
2022/01/01 09:58:40;;;;;;;0.50;0.20;;;;;;;6.73;87.93;98780.78;1713848;82;21140;-66
2022/01/01 10:01:07;;;;;;;0.33;0.20;;;;;;;6.73;87.93;98784.33;1710967;82;21078;-67
2022/01/01 10:03:41;;;;;;;0.27;0.17;;;;;;;6.74;87.89;98785.20;1712191;82;20986;-65
2022/01/01 10:06:09;;;;;;;0.30;0.20;;;;;;;6.77;87.72;98789.07;1711888;82;21050;-65
2022/01/01 10:08:37;;;;;;;0.70;0.10;;;;;;;6.77;87.56;98792.62;1709779;82;21058;-67
2022/01/01 10:11:06;;;;;;;0.35;0.20;;;;;;;6.77;87.21;98787.73;1707388;82;21089;-66
2022/01/01 10:13:38;;;;;;;0.53;0.20;;;;;;;6.75;87.11;98785.12;1712744;82;21538;-65
2022/01/01 10:16:07;;;;;;;0.13;0.13;;;;;;;6.73;87.03;98780.31;1709710;82;21413;-65
2022/01/01 10:18:36;;;;;;;2.15;0.20;;;;;;;6.71;86.97;98786.70;1710900;82;21629;-66
2022/01/01 10:21:11;;;;;;;0.40;0.23;;;;;;;6.69;86.86;98780.55;1708261;82;21120;-65
2022/01/01 10:23:42;;;;;;;0.30;0.20;;;;;;;6.67;86.82;98774.41;1710168;82;21092;-64
2022/01/01 10:29:17;;;;;;;0.33;0.20;;;;;;;6.63;86.94;98779.05;1707394;82;20999;-65
2022/01/01 10:32:00;;;;;;;0.28;0.20;;;;;;;6.67;86.95;98785.09;1712601;82;20903;-65
2022/01/01 10:34:34;;;;;;;0.40;0.20;;;;;;;6.66;86.88;98786.91;1656764;82;21068;-65
2022/01/01 10:37:01;;;;;;;1.75;0.30;;;;;;;6.70;86.91;98784.97;1716150;82;21078;-65
2022/01/01 10:39:28;;;;;;;0.45;0.23;;;;;;;6.70;86.80;98785.83;1695187;82;21065;-66
2022/01/01 10:41:59;;;;;;;0.20;0.10;;;;;;;6.70;86.54;98785.83;1708582;82;21043;-66
2022/01/01 10:44:33;;;;;;;0.10;0.10;;;;;;;6.68;86.54;98782.83;1708218;82;21078;-65
2022/01/01 10:47:05;;;;;;;0.30;0.20;;;;;;;6.67;86.45;98793.99;1710122;82;20876;-64
2022/01/01 10:49:50;;;;;;;0.20;0.20;;;;;;;6.69;86.34;98789.44;1702289;82;21138;-68
2022/01/01 10:52:24;;;;;;;0.70;0.20;;;;;;;6.70;86.39;98794.32;1711063;81;21053;-65
2022/01/01 10:55:07;;;;;;;0.30;0.20;;;;;;;6.74;86.40;98795.89;1712298;82;21500;-65
2022/01/01 10:57:41;;;;;;;0.20;0.10;;;;;;;6.77;86.31;98801.98;1709771;82;21281;-64
2022/01/01 11:00:20;;;;;;;0.47;0.20;;;;;;;6.80;86.21;98800.47;1708796;82;21604;-66
2022/01/01 11:02:55;;;;;;;0.20;0.17;;;;;;;6.81;86.09;98795.98;1707489;82;21075;-67
2022/01/01 11:05:33;;;;;;;0.20;0.10;;;;;;;6.81;85.98;98798.20;1705129;82;22030;-65
2022/01/01 11:08:00;;;;;;;0.40;0.20;;;;;;;6.80;85.81;98801.81;1708843;82;20900;-67
2022/01/01 11:10:27;;;;;;;0.20;0.17;;;;;;;6.79;85.75;98793.89;1711180;82;20932;-65
2022/01/01 11:12:56;;;;;;;0.28;0.20;;;;;;;6.77;85.79;98789.94;1713291;82;21077;-64
2022/01/01 11:15:23;;;;;;;0.33;0.25;;;;;;;6.77;85.81;98790.41;1713479;82;21716;-64
2022/01/01 11:17:49;;;;;;;0.30;0.20;;;;;;;6.77;85.84;98796.63;1712389;82;20920;-67
2022/01/01 11:20:16;;;;;;;0.45;0.28;;;;;;;6.76;85.84;98796.70;1710549;82;20864;-65
2022/01/01 11:22:43;;;;;;;0.20;0.20;;;;;;;6.78;85.89;98801.51;1710813;82;21295;-66
2022/01/01 11:25:11;;;;;;;0.60;0.33;;;;;;;6.80;85.91;98795.63;1707200;82;21141;-65
2022/01/01 11:27:37;;;;;;;0.40;0.30;;;;;;;6.84;85.88;98797.19;1705390;81;22646;-64
2022/01/01 11:30:06;;;;;;;0.50;0.30;;;;;;;6.86;85.83;98797.13;1709299;82;21204;-66
2022/01/01 11:32:46;;;;;;;0.80;0.50;;;;;;;6.87;85.83;98796.19;1712913;82;20931;-65
2022/01/01 11:35:22;;;;;;;0.50;0.40;;;;;;;6.86;85.70;98795.31;1711068;82;20887;-65
2022/01/01 11:38:03;;;;;;;0.40;0.20;;;;;;;6.87;85.65;98798.86;1704026;82;20971;-65
2022/01/01 11:40:47;;;;;;;0.50;0.30;;;;;;;6.89;85.63;98783.61;1712031;82;21060;-65
2022/01/01 11:43:33;;;;;;;0.60;0.20;;;;;;;6.93;85.63;98783.38;1703656;82;20930;-66
2022/01/01 11:46:03;;;;;;;0.30;0.20;;;;;;;6.95;85.39;98790.86;1713668;82;20896;-64
2022/01/01 11:48:35;;;;;;;0.40;0.20;;;;;;;6.97;85.41;98778.75;1695355;82;21046;-65
2022/01/01 11:51:32;;;;;;;0.53;0.30;;;;;;;7.00;85.24;98778.11;1710966;82;21122;-66
2022/01/01 11:54:28;;;;;;;0.50;0.20;;;;;;;7.03;85.19;98773.09;1708581;81;21134;-65